Terminal Aerodrome Forecast
Issued by NWS Bismarck, ND

Home | Current Version | Previous Version | Text Only | Print | Product List | Glossary Off
Versions: 1 2 3 4 5 6 7 8 9 10 11 12 13 14 15 16 17 18 19 20 21 22 23

090
FTUS43 KBIS 100524
TAFBIS
TAF
KBIS 100524Z 1006/1106 30013KT P6SM FEW250 WS020/32040KT
     FM101100 29007KT P6SM SCT250 WS020/32035KT
     FM101500 28007KT P6SM SCT250
     FM102100 29011KT P6SM SCT100 BKN200
     FM110500 30014G23KT P6SM SCT200=

USA.gov is the U.S. government's official web portal to all federal, state and local government web resources and services.